Time;durP1;ratioP1;P1;durP2;ratioP2;P2;SDS_P1;SDS_P2;PMS_P1;PMS_P2;Temp;Humidity;BMP_temperature;BMP_pressure;BME280_temperature;BME280_humidity;BME280_pressure;Samples;Min_cycle;Max_cycle;Signal;HPM_P1;HPM_P2
2022/10/15 05:53:32;;;;;;;29.13;21.65;;;15.90;80.10;;;;;;4967585;24;20056;-75
2022/10/15 05:55:58;;;;;;;26.95;20.55;;;15.90;80.10;;;;;;4788991;30;20070;-78
2022/10/15 05:58:25;;;;;;;29.50;22.02;;;15.90;80.10;;;;;;4777063;29;20062;-75
2022/10/15 06:00:58;;;;;;;32.05;21.13;;;15.90;80.10;;;;;;4790149;29;20134;-76
2022/10/15 06:03:25;;;;;;;30.20;22.40;;;16.00;80.20;;;;;;4776234;29;20126;-79
2022/10/15 06:05:51;;;;;;;27.98;20.38;;;16.00;80.10;;;;;;4807690;29;20435;-79
2022/10/15 06:08:17;;;;;;;26.98;20.00;;;16.00;80.00;;;;;;4807572;29;20051;-78
2022/10/15 06:10:43;;;;;;;25.83;18.25;;;16.00;80.00;;;;;;4791955;29;20059;-80
2022/10/15 06:13:16;;;;;;;28.13;19.15;;;16.00;80.00;;;;;;4807697;29;20096;-76
2022/10/15 06:15:45;;;;;;;26.80;18.73;;;16.10;80.10;;;;;;4792025;29;20086;-78
2022/10/15 06:18:14;;;;;;;26.80;18.65;;;16.10;80.10;;;;;;4807612;29;20100;-79
2022/10/15 06:20:49;;;;;;;25.50;17.98;;;16.10;80.00;;;;;;4806980;29;20416;-78
2022/10/15 06:23:15;;;;;;;26.40;19.58;;;16.10;80.00;;;;;;4807226;29;20046;-79
2022/10/15 06:25:48;;;;;;;26.95;19.60;;;16.10;80.40;;;;;;4807582;29;20152;-86
2022/10/15 06:28:14;;;;;;;31.17;21.52;;;16.10;81.10;;;;;;4765833;29;20038;-80
2022/10/15 06:30:39;;;;;;;34.53;20.67;;;16.20;81.90;;;;;;4807067;29;20053;-80
2022/10/15 06:33:05;;;;;;;26.13;18.25;;;16.20;82.30;;;;;;4806616;29;20042;-78
2022/10/15 06:35:33;;;;;;;25.65;18.05;;;16.20;82.60;;;;;;4776205;29;20055;-75
2022/10/15 06:38:03;;;;;;;25.63;17.40;;;16.30;82.80;;;;;;4791493;29;20061;-76
2022/10/15 06:40:31;;;;;;;25.80;16.67;;;16.30;82.80;;;;;;4807045;29;20043;-78
2022/10/15 06:43:08;;;;;;;22.20;14.95;;;16.30;82.80;;;;;;4810372;29;20494;-76
2022/10/15 06:45:38;;;;;;;24.55;15.80;;;16.30;82.70;;;;;;4794737;29;20155;-75
2022/10/15 06:48:05;;;;;;;22.98;15.55;;;16.40;82.60;;;;;;4810869;29;20069;-78
2022/10/15 06:51:00;;;;;;;23.85;16.17;;;16.40;82.50;;;;;;4810320;29;20077;-82
2022/10/15 06:53:28;;;;;;;20.35;11.98;;;16.40;82.40;;;;;;4792437;29;20059;-79
2022/10/15 06:56:02;;;;;;;23.55;15.00;;;16.40;82.30;;;;;;4791285;30;20123;-81
2022/10/15 06:58:28;;;;;;;28.38;19.42;;;16.40;82.10;;;;;;4791027;30;20062;-81
2022/10/15 07:00:59;;;;;;;35.05;24.40;;;16.40;81.70;;;;;;4790443;30;20069;-78
2022/10/15 07:03:56;;;;;;;;;;;;;;;;;;;;;
2022/10/15 07:35:43;;;;;;;28.20;21.27;;;16.50;80.30;;;;;;4712309;30;20143;-83
2022/10/15 07:38:12;;;;;;;28.17;20.80;;;16.50;80.20;;;;;;4746590;29;20055;-76
2022/10/15 07:44:09;;;;;;;25.17;19.15;;;16.50;80.20;;;;;;4809144;29;20462;-80
2022/10/15 07:47:18;;;;;;;32.22;20.77;;;16.50;80.20;;;;;;4809066;29;20065;-81
2022/10/15 07:49:46;;;;;;;34.75;24.75;;;16.50;80.10;;;;;;4793670;29;20082;-78
2022/10/15 07:52:12;;;;;;;37.25;28.48;;;16.60;80.20;;;;;;4793362;29;20366;-80
2022/10/15 07:54:38;;;;;;;36.20;29.15;;;16.50;80.00;;;;;;4793669;29;20046;-80
2022/10/15 07:57:40;;;;;;;39.80;29.20;;;16.50;80.00;;;;;;4808199;29;20039;-80
2022/10/15 08:00:12;;;;;;;39.30;29.13;;;16.50;79.90;;;;;;4779168;29;20355;-80
2022/10/15 08:02:41;;;;;;;43.03;29.20;;;16.50;80.20;;;;;;4808403;29;20050;-78
2022/10/15 08:05:07;;;;;;;40.42;27.63;;;16.40;80.30;;;;;;4793694;29;20049;-80
2022/10/15 08:07:33;;;;;;;38.63;28.33;;;16.50;80.40;;;;;;4808233;29;20047;-79
2022/10/15 08:10:31;;;;;;;35.38;25.50;;;16.50;80.50;;;;;;4786217;29;20059;-80
2022/10/15 08:13:00;;;;;;;37.85;25.60;;;16.50;80.60;;;;;;4793122;29;20050;-80
2022/10/15 08:15:26;;;;;;;35.28;23.75;;;16.50;80.60;;;;;;4809028;29;20043;-80
2022/10/15 08:17:52;;;;;;;34.05;23.42;;;16.60;80.80;;;;;;4809100;29;20058;-85
2022/10/15 08:20:18;;;;;;;34.85;22.20;;;16.70;80.80;;;;;;4793020;29;20047;-84
2022/10/15 08:26:25;;;;;;;33.20;18.67;;;16.80;80.80;;;;;;4808742;29;20091;-81
2022/10/15 08:28:54;;;;;;;27.55;18.98;;;16.90;80.70;;;;;;4808915;29;20043;-76
2022/10/15 08:31:20;;;;;;;29.42;16.52;;;17.00;80.60;;;;;;4790670;30;20070;-80
2022/10/15 08:33:51;;;;;;;27.63;16.25;;;17.10;80.70;;;;;;4774571;30;20047;-79
2022/10/15 08:36:25;;;;;;;30.17;15.95;;;17.20;80.60;;;;;;4789340;30;20051;-80
2022/10/15 08:39:23;;;;;;;;;;;;;;;;;;;;;
2022/10/15 08:42:10;;;;;;;37.05;17.65;;;17.40;80.20;;;;;;4790477;30;20079;-78
2022/10/15 08:45:14;;;;;;;32.97;17.67;;;17.40;80.00;;;;;;4789902;30;20043;-81
2022/10/15 08:48:15;;;;;;;27.70;15.47;;;17.40;79.60;;;;;;4773123;30;20092;-81
2022/10/15 08:51:34;;;;;;;32.55;16.48;;;17.50;79.50;;;;;;4774663;30;20063;-81
2022/10/15 08:54:03;;;;;;;28.38;14.20;;;17.60;79.40;;;;;;4751891;30;20095;-81
2022/10/15 08:56:38;;;;;;;36.38;16.42;;;17.60;79.30;;;;;;4774217;30;20039;-81
2022/10/15 08:59:25;;;;;;;29.73;13.45;;;17.60;79.30;;;;;;4788833;30;20079;-85
2022/10/15 09:02:07;;;;;;;26.67;16.02;;;17.70;79.30;;;;;;4760722;30;20066;-82
2022/10/15 09:04:52;;;;;;;;;;;17.60;79.10;;;;;;4773918;30;20043;-85
2022/10/15 09:07:48;;;;;;;33.38;18.77;;;17.60;78.80;;;;;;4774420;30;20040;-79
2022/10/15 09:10:35;;;;;;;25.98;17.98;;;17.60;78.90;;;;;;4789401;29;20059;-79
2022/10/15 09:13:08;;;;;;;37.53;18.67;;;17.60;78.70;;;;;;4789137;30;20067;-76
2022/10/15 09:15:48;;;;;;;29.20;17.20;;;17.60;78.80;;;;;;4774098;30;20055;-78
2022/10/15 09:18:27;;;;;;;33.03;18.20;;;17.60;78.80;;;;;;4789929;30;20478;-80
2022/10/15 09:20:53;;;;;;;25.20;17.23;;;17.60;79.00;;;;;;4774065;30;20171;-81
2022/10/15 09:23:22;;;;;;;23.17;16.17;;;17.60;79.10;;;;;;4790193;30;20124;-78
2022/10/15 09:26:10;;;;;;;28.15;15.95;;;17.60;79.20;;;;;;4774262;30;20074;-79
2022/10/15 09:29:05;;;;;;;21.23;15.70;;;17.60;79.20;;;;;;4773824;30;20054;-78
2022/10/15 09:31:41;;;;;;;24.65;15.10;;;17.60;79.20;;;;;;4788843;30;20094;-78
2022/10/15 09:34:18;;;;;;;25.40;16.27;;;17.60;79.30;;;;;;4774148;30;20051;-81
2022/10/15 09:37:04;;;;;;;29.00;19.55;;;17.50;79.10;;;;;;4788811;30;20083;-82
2022/10/15 09:39:55;;;;;;;30.10;19.55;;;17.50;79.00;;;;;;4773852;30;20055;-82
2022/10/15 09:42:41;;;;;;;26.95;20.00;;;17.50;78.70;;;;;;4773646;30;20084;-82
2022/10/15 09:46:00;;;;;;;29.08;18.98;;;17.50;78.70;;;;;;4773923;30;20371;-86
2022/10/15 09:48:32;;;;;;;23.65;17.75;;;17.50;78.60;;;;;;4789499;30;20047;-79
2022/10/15 09:59:21;;;;;;;24.20;18.05;;;17.40;78.50;;;;;;4734324;30;20080;-84
2022/10/15 10:02:12;;;;;;;28.60;17.05;;;17.40;78.50;;;;;;4682223;30;20403;-83
2022/10/15 10:04:40;;;;;;;28.27;17.45;;;17.40;78.30;;;;;;4706916;30;20059;-82
2022/10/15 10:07:33;;;;;;;32.20;17.90;;;17.40;78.70;;;;;;4719946;30;20136;-82
2022/10/15 10:10:18;;;;;;;28.30;18.25;;;17.40;78.70;;;;;;4737040;30;20052;-80
2022/10/15 10:12:56;;;;;;;28.20;19.02;;;17.40;78.40;;;;;;4758803;30;20058;-81
2022/10/15 10:15:35;;;;;;;28.60;18.92;;;17.40;78.10;;;;;;4790780;29;20047;-81
2022/10/15 10:18:04;;;;;;;27.85;18.20;;;17.40;77.90;;;;;;4759021;30;20464;-82
2022/10/15 10:20:30;;;;;;;30.88;18.55;;;17.30;77.80;;;;;;4776861;30;20081;-81
2022/10/15 10:23:00;;;;;;;27.95;18.40;;;17.30;78.00;;;;;;4777108;30;20391;-78
2022/10/15 10:25:26;;;;;;;30.23;18.23;;;17.30;78.10;;;;;;4776703;30;20139;-78
2022/10/15 10:28:16;;;;;;;28.98;17.20;;;17.30;78.10;;;;;;4792610;30;20053;-76
2022/10/15 10:30:59;;;;;;;26.80;17.08;;;17.30;77.90;;;;;;4792138;29;20134;-80
2022/10/15 10:33:51;;;;;;;25.45;16.52;;;17.30;77.70;;;;;;4762121;30;20058;-79
2022/10/15 10:36:22;;;;;;;28.70;17.95;;;17.30;77.60;;;;;;4788124;30;20059;-79
2022/10/15 10:42:44;;;;;;;;;;;17.30;77.70;;;;;;4736806;30;20128;-79
2022/10/15 10:45:25;;;;;;;25.52;16.17;;;17.30;77.60;;;;;;4740175;30;19921;-82
2022/10/15 10:48:27;;;;;;;26.88;15.82;;;17.20;77.70;;;;;;4761594;30;20047;-82
2022/10/15 10:51:24;;;;;;;28.48;16.20;;;17.20;77.60;;;;;;4761938;30;20360;-81
2022/10/15 10:54:00;;;;;;;23.40;15.77;;;17.20;77.70;;;;;;4775649;30;20436;-81
2022/10/15 10:56:32;;;;;;;20.67;14.13;;;17.20;77.70;;;;;;4776228;30;20438;-83
2022/10/15 10:59:15;;;;;;;21.80;15.45;;;17.30;77.70;;;;;;4761821;30;20059;-82
2022/10/15 11:01:48;;;;;;;28.35;16.08;;;17.20;77.70;;;;;;4762398;30;20055;-80
2022/10/15 11:04:26;;;;;;;21.58;14.38;;;17.20;77.70;;;;;;4761830;30;20050;-82
2022/10/15 11:07:04;;;;;;;23.70;15.52;;;17.20;77.60;;;;;;4762602;30;20126;-82
2022/10/15 11:09:41;;;;;;;24.52;14.43;;;17.20;77.60;;;;;;4761741;30;20039;-81
2022/10/15 11:12:43;;;;;;;21.40;13.98;;;17.30;77.60;;;;;;4776290;30;20059;-82
2022/10/15 11:15:21;;;;;;;21.00;13.40;;;17.30;77.60;;;;;;4761599;30;20138;-81
2022/10/15 11:18:05;;;;;;;23.70;13.77;;;17.30;77.60;;;;;;4761311;30;20067;-81
2022/10/15 11:21:15;;;;;;;20.20;13.20;;;17.30;77.60;;;;;;4761375;30;20071;-83
2022/10/15 11:24:07;;;;;;;21.55;13.77;;;17.30;77.50;;;;;;4755263;30;20059;-80
2022/10/15 11:27:33;;;;;;;21.42;14.15;;;17.30;77.50;;;;;;4761137;30;20047;-81
2022/10/15 11:30:20;;;;;;;18.90;12.07;;;17.30;77.60;;;;;;4739665;29;20196;-83
2022/10/15 11:33:12;;;;;;;17.23;12.23;;;17.30;77.60;;;;;;4808198;29;20475;-80
2022/10/15 11:35:56;;;;;;;16.90;11.57;;;17.30;77.60;;;;;;4790658;29;20057;-81
2022/10/15 11:39:05;;;;;;;23.20;10.80;;;17.30;77.70;;;;;;4792499;29;20130;-80
2022/10/15 11:42:00;;;;;;;21.13;11.52;;;17.20;77.70;;;;;;4808843;29;20050;-81
2022/10/15 11:44:36;;;;;;;17.23;11.25;;;17.20;77.80;;;;;;4791920;29;20571;-81
2022/10/15 11:47:28;;;;;;;19.23;11.18;;;17.20;77.90;;;;;;4799255;29;20054;-83
2022/10/15 12:07:41;;;;;;;20.08;9.07;;;17.20;78.50;;;;;;4808932;29;20079;-83
2022/10/15 12:10:41;;;;;;;18.27;8.90;;;17.20;78.70;;;;;;4738029;30;20044;-79
2022/10/15 12:13:28;;;;;;;14.32;9.98;;;17.20;78.90;;;;;;4799003;29;20047;-82
2022/10/15 12:16:06;;;;;;;22.83;9.18;;;17.20;79.00;;;;;;4793301;29;20066;-84
2022/10/15 12:18:50;;;;;;;15.05;8.50;;;17.20;79.00;;;;;;4792507;29;20473;-80
2022/10/15 12:22:05;;;;;;;12.07;8.80;;;17.20;79.10;;;;;;4809013;29;20042;-79
2022/10/15 12:24:37;;;;;;;11.82;7.40;;;17.20;79.10;;;;;;4745108;29;20439;-81
2022/10/15 12:27:17;;;;;;;15.60;9.25;;;17.20;79.30;;;;;;4809139;29;20043;-81
2022/10/15 12:30:19;;;;;;;20.48;9.25;;;17.20;79.90;;;;;;4808731;29;20473;-79
2022/10/15 12:32:47;;;;;;;14.93;8.02;;;17.20;80.30;;;;;;4752804;30;20126;-83
2022/10/15 12:35:29;;;;;;;16.55;8.20;;;17.20;80.30;;;;;;4753123;30;20054;-85
2022/10/15 12:38:09;;;;;;;15.70;7.82;;;17.20;80.20;;;;;;4791335;29;20058;-82
2022/10/15 12:40:37;;;;;;;17.70;8.40;;;17.30;80.50;;;;;;4791292;29;20137;-81
2022/10/15 12:43:20;;;;;;;20.38;9.95;;;17.30;80.70;;;;;;4806965;29;20088;-83
2022/10/15 12:45:53;;;;;;;16.85;9.52;;;17.30;80.90;;;;;;4792418;29;20043;-81
2022/10/15 12:48:43;;;;;;;14.07;9.07;;;17.30;80.70;;;;;;4806480;29;20047;-77
2022/10/15 12:51:32;;;;;;;13.85;9.02;;;17.40;80.70;;;;;;4807305;29;20131;-78
2022/10/15 12:53:59;;;;;;;16.02;10.32;;;17.40;80.60;;;;;;4807148;29;20042;-81
2022/10/15 12:56:40;;;;;;;18.00;10.57;;;17.40;80.60;;;;;;4792434;29;20374;-80
2022/10/15 12:59:49;;;;;;;16.52;10.45;;;17.40;81.50;;;;;;4808315;29;20528;-82
2022/10/15 13:05:33;;;;;;;23.50;11.30;;;17.40;81.90;;;;;;4806638;29;20379;-84
2022/10/15 13:08:03;;;;;;;19.75;10.98;;;17.40;82.00;;;;;;4792368;29;20043;-82
2022/10/15 13:10:37;;;;;;;11.30;10.07;;;17.40;81.90;;;;;;4806982;29;20034;-82
2022/10/15 13:13:06;;;;;;;11.57;8.60;;;17.40;81.40;;;;;;4777788;29;20069;-82
2022/10/15 13:15:33;;;;;;;12.13;9.50;;;17.40;81.70;;;;;;4792369;29;20055;-81
2022/10/15 13:18:06;;;;;;;12.27;9.32;;;17.40;82.30;;;;;;4807822;29;20051;-82
2022/10/15 13:20:38;;;;;;;11.30;8.65;;;17.40;82.90;;;;;;4792194;29;20055;-82
2022/10/15 13:23:20;;;;;;;10.10;9.07;;;17.40;83.10;;;;;;4807154;29;20046;-81
2022/10/15 13:25:49;;;;;;;16.27;8.98;;;17.40;83.40;;;;;;4791983;29;20093;-83
2022/10/15 13:28:28;;;;;;;14.00;8.65;;;17.40;83.40;;;;;;4792012;29;20183;-82
2022/10/15 13:30:54;;;;;;;12.75;8.65;;;17.40;83.60;;;;;;4792126;29;20095;-81
2022/10/15 13:33:20;;;;;;;10.27;7.85;;;17.40;83.50;;;;;;4791923;29;20204;-81
2022/10/15 13:35:46;;;;;;;15.68;7.70;;;17.50;83.60;;;;;;4776944;29;20466;-84
2022/10/15 13:38:24;;;;;;;10.13;7.50;;;17.50;83.60;;;;;;4792113;29;20097;-82
2022/10/15 13:40:52;;;;;;;10.57;6.40;;;17.50;83.60;;;;;;4807714;29;20046;-82
2022/10/15 13:43:23;;;;;;;10.90;7.00;;;17.50;83.50;;;;;;4791660;29;20519;-81
2022/10/15 13:45:55;;;;;;;11.68;6.07;;;17.50;83.30;;;;;;4791790;29;20129;-82
2022/10/15 13:48:26;;;;;;;8.70;7.05;;;17.50;82.90;;;;;;4791676;29;20103;-83
2022/10/15 13:50:57;;;;;;;10.05;6.80;;;17.50;82.40;;;;;;4793243;29;20078;-82
2022/10/15 13:53:34;;;;;;;7.85;6.70;;;17.40;82.00;;;;;;4809911;29;20063;-84
2022/10/15 13:56:23;;;;;;;9.95;6.35;;;17.40;81.80;;;;;;4777275;30;20047;-86
2022/10/15 13:58:49;;;;;;;8.45;6.13;;;17.30;81.80;;;;;;4780716;29;20078;-80
2022/10/15 14:01:21;;;;;;;8.00;5.78;;;17.30;81.80;;;;;;4810447;29;20051;-82
2022/10/15 14:03:56;;;;;;;6.93;6.18;;;17.30;81.90;;;;;;4795071;29;20395;-82
2022/10/15 14:06:22;;;;;;;6.15;5.10;;;17.30;81.90;;;;;;4795303;29;20051;-80
2022/10/15 14:08:51;;;;;;;7.00;5.47;;;17.30;81.90;;;;;;4810223;29;20382;-78
2022/10/15 14:11:18;;;;;;;6.30;4.85;;;17.30;81.80;;;;;;4810571;29;20054;-80
2022/10/15 14:13:52;;;;;;;6.82;4.55;;;17.30;81.80;;;;;;4811205;29;20141;-80
2022/10/15 14:16:21;;;;;;;;;;;17.30;81.80;;;;;;4795262;29;20086;-80
2022/10/15 14:19:08;;;;;;;6.20;4.35;;;17.30;81.60;;;;;;4795394;29;19925;-78
2022/10/15 14:21:35;;;;;;;5.93;3.95;;;17.40;81.70;;;;;;4795938;29;20415;-79
2022/10/15 14:24:12;;;;;;;6.78;4.20;;;17.40;81.60;;;;;;4811397;29;20055;-76
2022/10/15 14:26:40;;;;;;;5.13;4.22;;;17.40;81.40;;;;;;4810889;29;20054;-77
2022/10/15 14:29:17;;;;;;;7.97;4.10;;;17.40;81.40;;;;;;4809504;29;20054;-77
2022/10/15 14:31:46;;;;;;;5.55;3.50;;;17.40;81.30;;;;;;4809544;29;20093;-77
2022/10/15 14:34:37;;;;;;;7.15;3.88;;;17.40;81.30;;;;;;4810647;29;20134;-74
2022/10/15 14:37:27;;;;;;;6.05;4.07;;;17.40;81.60;;;;;;4811218;29;20054;-76
2022/10/15 14:40:08;;;;;;;6.05;3.72;;;17.40;81.50;;;;;;4800078;29;20075;-79
2022/10/15 14:42:41;;;;;;;5.85;3.45;;;17.40;81.60;;;;;;4810813;29;20332;-75
2022/10/15 14:45:30;;;;;;;4.78;3.63;;;17.40;81.60;;;;;;4779581;29;20403;-79
2022/10/15 14:48:11;;;;;;;8.00;3.42;;;17.40;81.60;;;;;;4810370;29;20066;-76
2022/10/15 14:50:41;;;;;;;8.68;3.20;;;17.40;81.80;;;;;;4810750;29;20053;-81
2022/10/15 14:53:14;;;;;;;8.60;3.65;;;17.40;81.90;;;;;;4794675;29;20046;-78
2022/10/15 14:55:47;;;;;;;6.38;3.30;;;17.40;81.90;;;;;;4810731;29;20421;-78
2022/10/15 14:58:19;;;;;;;6.22;3.63;;;17.40;81.80;;;;;;4810167;29;20123;-79
2022/10/15 16:04:52;;;;;;;5.13;1.40;;;17.30;80.80;;;;;;5363637;24;20055;-75
2022/10/15 16:07:18;;;;;;;5.78;1.70;;;17.30;80.70;;;;;;4791246;30;20047;-76
2022/10/15 16:09:44;;;;;;;6.85;1.88;;;17.30;80.70;;;;;;4790757;30;20424;-77
2022/10/15 16:12:09;;;;;;;4.30;1.60;;;17.30;80.70;;;;;;4791121;30;20062;-76
2022/10/15 16:14:35;;;;;;;4.57;1.27;;;17.30;80.90;;;;;;4790253;30;20352;-76
2022/10/15 16:17:01;;;;;;;7.07;1.75;;;17.30;80.90;;;;;;4790923;30;20094;-77
2022/10/15 16:19:27;;;;;;;3.60;1.20;;;17.30;80.90;;;;;;4790933;30;20051;-77
2022/10/15 16:21:53;;;;;;;4.03;1.10;;;17.30;80.90;;;;;;4791297;30;20059;-76
2022/10/15 16:24:21;;;;;;;2.85;1.27;;;17.30;81.00;;;;;;4788546;30;20447;-78
2022/10/15 16:26:55;;;;;;;4.43;1.50;;;17.30;80.90;;;;;;4790333;30;20134;-79
2022/10/15 16:29:20;;;;;;;;;;;17.30;81.10;;;;;;4760335;30;20087;-78
2022/10/15 16:31:47;;;;;;;4.18;1.42;;;17.30;81.00;;;;;;4774242;30;19964;-78
2022/10/15 16:34:12;;;;;;;4.78;1.10;;;17.30;81.30;;;;;;4790084;30;20380;-78
2022/10/15 16:36:39;;;;;;;4.18;1.90;;;17.30;81.30;;;;;;4775174;30;20073;-75
2022/10/15 16:39:05;;;;;;;6.45;1.55;;;17.30;81.10;;;;;;4775141;30;20059;-78
2022/10/15 16:41:30;;;;;;;7.45;1.80;;;17.20;80.90;;;;;;4774754;30;20472;-80
2022/10/15 18:31:06;;;;;;;7.90;0.90;;;17.20;78.90;;;;;;4731700;30;20148;-77
2022/10/15 18:33:38;;;;;;;5.03;1.00;;;17.20;78.90;;;;;;4748750;30;20084;-77
2022/10/15 18:36:10;;;;;;;2.92;0.70;;;17.20;79.00;;;;;;4737616;30;20064;-76
2022/10/15 18:38:36;;;;;;;5.97;1.15;;;17.20;79.10;;;;;;4739555;30;20053;-76
2022/10/15 18:41:02;;;;;;;5.70;1.40;;;17.20;79.20;;;;;;4739643;30;20072;-78
2022/10/15 18:43:28;;;;;;;5.63;1.30;;;17.20;79.30;;;;;;4739629;30;20143;-76
2022/10/15 18:45:54;;;;;;;4.20;0.90;;;17.20;79.30;;;;;;4740258;30;20127;-74
2022/10/15 18:48:20;;;;;;;4.60;0.90;;;17.20;79.40;;;;;;4741573;30;20068;-74
2022/10/15 18:50:46;;;;;;;5.35;0.80;;;17.30;79.70;;;;;;4757109;30;20052;-74
2022/10/15 18:53:11;;;;;;;2.58;0.80;;;17.30;79.80;;;;;;4756844;30;20056;-74
2022/10/15 18:55:37;;;;;;;5.63;0.88;;;17.30;79.80;;;;;;4751494;30;20460;-76
2022/10/15 18:58:03;;;;;;;5.10;0.77;;;17.30;80.10;;;;;;4747724;30;20056;-75
2022/10/15 19:00:34;;;;;;;3.78;0.70;;;17.30;80.10;;;;;;4756776;30;20382;-74
2022/10/15 19:03:00;;;;;;;6.38;0.98;;;17.30;80.10;;;;;;4741785;30;21009;-75
2022/10/15 19:05:25;;;;;;;4.20;1.15;;;17.30;80.10;;;;;;4738914;30;20057;-75
2022/10/15 19:07:54;;;;;;;5.40;0.80;;;17.30;80.10;;;;;;4738459;30;20123;-74
2022/10/15 19:10:21;;;;;;;4.18;1.10;;;17.30;80.10;;;;;;4738910;30;20048;-72
2022/10/15 19:12:48;;;;;;;5.43;1.13;;;17.30;80.70;;;;;;4739308;30;20064;-75
2022/10/15 19:15:14;;;;;;;5.35;0.98;;;17.30;80.10;;;;;;4739218;30;20060;-73
2022/10/15 19:17:40;;;;;;;5.53;1.00;;;17.30;80.10;;;;;;4738476;30;20468;-74
2022/10/15 19:20:06;;;;;;;4.05;1.10;;;17.30;80.00;;;;;;4755529;30;20500;-76
2022/10/15 19:22:32;;;;;;;3.03;0.85;;;17.40;80.10;;;;;;4736434;30;20354;-76
2022/10/15 19:24:57;;;;;;;5.63;1.30;;;17.40;80.00;;;;;;4738951;30;20163;-75
2022/10/15 19:27:23;;;;;;;6.82;0.80;;;17.40;80.00;;;;;;4738904;30;20084;-74
2022/10/15 19:29:49;;;;;;;4.53;0.73;;;17.40;79.90;;;;;;4723192;30;20458;-75
2022/10/15 19:32:15;;;;;;;3.60;0.90;;;17.40;79.90;;;;;;4739514;30;20057;-76
2022/10/15 19:34:40;;;;;;;2.53;0.93;;;17.40;79.90;;;;;;4743800;30;20067;-76
2022/10/15 19:37:06;;;;;;;3.03;0.73;;;17.40;79.80;;;;;;4740943;30;20048;-74
2022/10/15 19:39:34;;;;;;;5.25;1.17;;;17.40;79.80;;;;;;4756258;30;20056;-76
2022/10/15 19:42:00;;;;;;;4.88;1.08;;;17.40;79.80;;;;;;4756268;30;20618;-75
2022/10/15 19:44:27;;;;;;;6.53;1.45;;;17.40;79.80;;;;;;4741696;30;20073;-79
2022/10/15 19:46:56;;;;;;;4.68;1.65;;;17.40;79.10;;;;;;4752040;30;20407;-81
2022/10/15 19:49:23;;;;;;;5.40;1.58;;;17.30;77.70;;;;;;4741174;30;20051;-79
2022/10/15 19:51:50;;;;;;;6.57;1.63;;;17.30;76.90;;;;;;4740333;30;20123;-80
2022/10/15 19:54:16;;;;;;;12.93;1.52;;;17.20;76.50;;;;;;4732960;30;20381;-79
2022/10/15 19:56:42;;;;;;;3.97;1.20;;;17.10;76.10;;;;;;4754294;30;20052;-78
2022/10/15 19:59:10;;;;;;;8.18;2.17;;;17.00;75.80;;;;;;4751706;30;20049;-79
2022/10/15 20:01:36;;;;;;;8.60;1.63;;;16.90;75.60;;;;;;4737078;30;20091;-78
2022/10/15 20:04:04;;;;;;;5.68;1.35;;;16.90;75.30;;;;;;4737956;30;20057;-79
2022/10/15 20:06:38;;;;;;;8.00;1.65;;;16.80;74.90;;;;;;4721835;30;20061;-80
2022/10/15 20:09:23;;;;;;;6.32;1.40;;;16.70;74.90;;;;;;4751718;30;20480;-79
2022/10/15 20:12:05;;;;;;;7.70;1.27;;;16.80;75.00;;;;;;4728715;30;20079;-79
2022/10/15 20:14:54;;;;;;;6.93;1.77;;;16.60;74.90;;;;;;4721457;30;20114;-79
2022/10/15 20:17:39;;;;;;;8.85;1.75;;;16.50;75.00;;;;;;4737302;30;20060;-77
2022/10/15 20:28:39;;;;;;;6.38;1.88;;;16.30;75.30;;;;;;4667054;30;20057;-79
2022/10/15 20:31:54;;;;;;;5.07;1.27;;;16.20;75.50;;;;;;4636631;30;20063;-79
2022/10/15 20:34:26;;;;;;;7.22;1.60;;;16.20;75.50;;;;;;4664911;30;20518;-79
2022/10/15 20:37:20;;;;;;;7.85;1.10;;;16.20;75.60;;;;;;4704851;30;20060;-79
2022/10/15 20:39:48;;;;;;;5.30;1.52;;;16.10;75.50;;;;;;4739664;30;20056;-79
2022/10/15 20:42:36;;;;;;;7.30;1.85;;;16.10;75.80;;;;;;4724308;30;20109;-78
2022/10/15 20:48:07;;;;;;;6.80;1.63;;;16.00;75.80;;;;;;4740064;30;20052;-79
2022/10/15 20:50:37;;;;;;;9.07;2.00;;;16.00;75.90;;;;;;4739518;30;20044;-78
2022/10/15 20:53:05;;;;;;;6.72;1.42;;;16.00;76.00;;;;;;4740263;30;20412;-79
2022/10/15 20:55:31;;;;;;;7.25;1.85;;;15.90;76.10;;;;;;4722579;30;20056;-79
2022/10/15 20:57:57;;;;;;;8.40;1.70;;;15.90;76.20;;;;;;4736325;30;20138;-79
2022/10/15 21:00:25;;;;;;;5.93;1.88;;;15.90;76.20;;;;;;4720659;30;20453;-79
2022/10/15 21:02:51;;;;;;;9.88;2.42;;;15.90;76.30;;;;;;4736123;30;20461;-79
2022/10/15 21:05:16;;;;;;;10.00;2.20;;;15.90;76.10;;;;;;4720791;30;20095;-78
2022/10/15 21:07:42;;;;;;;8.82;1.77;;;15.90;76.30;;;;;;4736609;30;20080;-78
2022/10/15 21:10:08;;;;;;;7.05;1.80;;;15.90;76.30;;;;;;4718951;30;20111;-78
2022/10/15 21:12:34;;;;;;;6.78;1.40;;;15.90;76.20;;;;;;4730920;30;20048;-79
